createdAt,value
2022-08-17T00:01:00.624Z,15.7
2022-08-17T00:01:18.632Z,15.8
2022-08-17T00:02:32.027Z,15.8
2022-08-17T00:03:07.210Z,15.8
2022-08-17T00:04:20.988Z,15.8
2022-08-17T00:05:14.341Z,15.8
2022-08-17T00:06:16.512Z,15.8
2022-08-17T00:07:15.096Z,15.6
2022-08-17T00:08:17.733Z,15.6
2022-08-17T00:09:23.147Z,15.6
2022-08-17T00:10:18.147Z,15.6
2022-08-17T00:11:14.948Z,15.6
2022-08-17T00:12:47.955Z,15.6
2022-08-17T00:13:12.257Z,15.6
2022-08-17T00:14:20.397Z,15.6
2022-08-17T00:15:16.133Z,15.6
2022-08-17T00:16:15.339Z,15.5
2022-08-17T00:17:14.735Z,15.5
2022-08-17T00:19:11.098Z,15.5
2022-08-17T00:19:14.455Z,15.5
2022-08-17T00:20:17.012Z,15.5
2022-08-17T00:22:30.145Z,15.6
2022-08-17T00:22:39.424Z,15.6
2022-08-17T00:23:07.501Z,15.6
2022-08-17T00:24:17.502Z,15.6
2022-08-17T00:25:15.743Z,15.6
2022-08-17T00:26:14.730Z,15.8
2022-08-17T00:27:14.178Z,15.9
2022-08-17T00:28:12.019Z,15.9
2022-08-17T00:29:24.354Z,15.9
2022-08-17T00:30:15.232Z,15.7
2022-08-17T00:31:15.744Z,15.7
2022-08-17T00:33:21.002Z,15.4
2022-08-17T00:33:27.982Z,15.5
2022-08-17T00:34:19.816Z,15.4
2022-08-17T00:35:13.727Z,15.4
2022-08-17T00:36:16.026Z,15.4
2022-08-17T00:37:19.115Z,15.4
2022-08-17T00:38:12.521Z,15.4
2022-08-17T00:39:18.290Z,15.3
2022-08-17T00:40:08.818Z,15.4
2022-08-17T00:41:21.043Z,15.4
2022-08-17T00:42:16.768Z,15.4
2022-08-17T00:43:16.623Z,15.3
2022-08-17T00:44:15.610Z,15.5
2022-08-17T00:45:15.979Z,15.5
2022-08-17T00:46:17.156Z,15.3
2022-08-17T00:47:15.233Z,15.3
2022-08-17T00:48:33.593Z,15.3
2022-08-17T00:49:15.487Z,15.3
2022-08-17T00:50:13.466Z,15.2
2022-08-17T00:51:14.567Z,15.2
2022-08-17T00:52:16.037Z,15.4
2022-08-17T00:53:14.394Z,15.4
2022-08-17T00:54:08.246Z,15.4
2022-08-17T00:55:22.674Z,15.4
2022-08-17T00:56:15.500Z,15.3
2022-08-17T00:57:14.385Z,15.3
2022-08-17T00:58:14.425Z,15.4
2022-08-17T00:59:13.355Z,15.3
2022-08-17T01:00:15.264Z,15.1
2022-08-17T01:01:25.591Z,15.1
2022-08-17T01:02:15.409Z,15.1
2022-08-17T01:03:14.166Z,15.1
2022-08-17T01:04:15.407Z,15.1
2022-08-17T01:05:12.146Z,15.3
2022-08-17T01:06:16.201Z,15.4
2022-08-17T01:07:12.691Z,15.4
2022-08-17T01:08:13.367Z,15.4
2022-08-17T01:09:16.049Z,15.4
2022-08-17T01:11:04.553Z,15.3
2022-08-17T01:11:13.418Z,15.3
2022-08-17T01:12:16.894Z,15.3
2022-08-17T01:13:14.888Z,15.1
2022-08-17T01:14:16.621Z,15.1
2022-08-17T01:15:12.398Z,15
2022-08-17T01:16:16.343Z,15
2022-08-17T01:17:15.665Z,14.9
2022-08-17T01:18:13.736Z,14.9
2022-08-17T01:19:15.760Z,14.9
2022-08-17T01:20:16.733Z,14.9
2022-08-17T01:21:18.637Z,15
2022-08-17T01:22:14.471Z,14.9
2022-08-17T01:23:24.759Z,14.8
2022-08-17T01:24:09.774Z,14.8
2022-08-17T01:25:19.835Z,14.8
2022-08-17T01:26:13.732Z,14.9
2022-08-17T01:27:16.048Z,14.9
2022-08-17T01:28:53.344Z,14.9
2022-08-17T01:29:17.246Z,14.8
2022-08-17T01:31:03.364Z,14.8
2022-08-17T01:31:14.526Z,14.8
2022-08-17T01:32:17.568Z,14.7
2022-08-17T01:33:15.234Z,14.8
2022-08-17T01:34:12.848Z,14.8
2022-08-17T01:35:18.749Z,14.8
2022-08-17T01:36:13.072Z,14.8
2022-08-17T01:37:17.455Z,14.9
2022-08-17T01:38:14.777Z,14.9
2022-08-17T01:39:18.472Z,14.9
2022-08-17T01:40:14.380Z,14.9
2022-08-17T01:41:21.295Z,14.9
2022-08-17T01:42:18.207Z,14.8
2022-08-17T01:43:15.719Z,14.8
2022-08-17T01:44:11.914Z,14.8
2022-08-17T01:45:13.885Z,14.8
2022-08-17T01:46:15.213Z,14.9
2022-08-17T01:47:12.209Z,14.8
2022-08-17T01:48:21.515Z,14.8
2022-08-17T01:49:06.720Z,14.6
2022-08-17T01:50:17.692Z,14.6
2022-08-17T01:51:14.198Z,14.7
2022-08-17T01:52:16.915Z,14.7
2022-08-17T01:53:16.767Z,14.5
2022-08-17T01:54:17.775Z,14.5
2022-08-17T01:55:12.144Z,14.6
2022-08-17T01:56:15.085Z,14.5
2022-08-17T01:57:19.461Z,14.6
2022-08-17T01:58:15.119Z,14.6
2022-08-17T01:59:13.894Z,14.7
2022-08-17T02:00:20.466Z,14.7
2022-08-17T02:01:15.591Z,14.7
2022-08-17T02:02:35.218Z,14.8
2022-08-17T02:03:14.349Z,14.8
2022-08-17T02:04:15.083Z,14.7
2022-08-17T02:05:17.085Z,14.7
2022-08-17T02:06:42.728Z,14.8
2022-08-17T02:07:17.787Z,14.8
2022-08-17T02:09:02.018Z,14.8
2022-08-17T02:09:26.169Z,14.9
2022-08-17T02:10:24.306Z,14.8
2022-08-17T02:11:16.694Z,14.8
2022-08-17T02:12:43.430Z,14.6
2022-08-17T02:13:13.712Z,14.6
2022-08-17T02:14:18.479Z,14.6
2022-08-17T02:15:14.733Z,14.6
2022-08-17T02:16:20.088Z,14.4
2022-08-17T02:17:16.246Z,14.4
2022-08-17T02:18:17.933Z,14.4
2022-08-17T02:19:14.971Z,14.4
2022-08-17T02:20:12.504Z,14.4
2022-08-17T02:21:15.315Z,14.4
2022-08-17T02:22:17.084Z,14.4
2022-08-17T02:23:15.402Z,14.3
2022-08-17T02:24:14.291Z,14.3
2022-08-17T02:25:13.670Z,14.3
2022-08-17T02:26:29.668Z,14.3
2022-08-17T02:27:12.483Z,14.3
2022-08-17T02:28:19.051Z,14.2
2022-08-17T02:29:10.895Z,14.2
2022-08-17T02:31:05.471Z,14.3
2022-08-17T02:31:20.605Z,14.3
2022-08-17T02:32:30.221Z,14.3
2022-08-17T02:33:14.000Z,14.3
2022-08-17T02:34:19.157Z,14.3
2022-08-17T02:35:21.457Z,14.3
2022-08-17T02:36:20.471Z,14.3
2022-08-17T02:37:14.597Z,14.3
2022-08-17T02:38:14.941Z,14.3
2022-08-17T02:39:17.521Z,14.3
2022-08-17T02:40:08.913Z,14.3
2022-08-17T02:41:21.397Z,14.3
2022-08-17T02:42:17.859Z,14.3
2022-08-17T02:43:17.708Z,14.3
2022-08-17T02:44:41.207Z,14.3
2022-08-17T02:45:15.061Z,14.3
2022-08-17T02:46:13.464Z,14.3
2022-08-17T02:47:14.894Z,14.3
2022-08-17T02:48:13.965Z,14.3
2022-08-17T02:49:13.786Z,14.3
2022-08-17T02:50:12.858Z,14.2
2022-08-17T02:51:17.010Z,14.2
2022-08-17T02:52:44.613Z,14.2
2022-08-17T02:53:16.838Z,14.2
2022-08-17T02:54:45.215Z,14.2
2022-08-17T02:55:24.632Z,14.1
2022-08-17T02:56:07.233Z,14.1
2022-08-17T02:57:18.761Z,14.1
2022-08-17T02:58:14.246Z,14
2022-08-17T02:59:13.074Z,14
2022-08-17T03:00:14.314Z,14.1
2022-08-17T03:01:14.927Z,14.1
2022-08-17T03:02:16.825Z,14.1
2022-08-17T03:03:13.259Z,14.1
2022-08-17T03:04:21.990Z,14
2022-08-17T03:05:07.853Z,14
2022-08-17T03:06:18.680Z,14.1
2022-08-17T03:07:13.164Z,14.1
2022-08-17T03:08:17.660Z,14.1
2022-08-17T03:09:17.212Z,14.1
2022-08-17T03:10:11.114Z,14.1
2022-08-17T03:11:13.304Z,13.9
2022-08-17T03:12:14.923Z,13.9
2022-08-17T03:13:16.815Z,13.8
2022-08-17T03:14:16.188Z,13.9
2022-08-17T03:15:16.032Z,13.9
2022-08-17T03:16:17.555Z,13.8
2022-08-17T03:17:19.462Z,13.8
2022-08-17T03:18:29.782Z,13.8
2022-08-17T03:19:06.423Z,13.8
2022-08-17T03:20:15.682Z,13.8
2022-08-17T03:21:17.465Z,13.8
2022-08-17T03:22:42.591Z,13.8
2022-08-17T03:23:13.804Z,13.8
2022-08-17T03:24:20.113Z,13.8
2022-08-17T03:25:24.759Z,13.8
2022-08-17T03:26:21.434Z,13.9
2022-08-17T03:27:16.162Z,13.9
2022-08-17T03:28:13.664Z,13.9
2022-08-17T03:29:15.590Z,13.9
2022-08-17T03:30:14.945Z,13.9
2022-08-17T03:31:15.450Z,14.1
2022-08-17T03:32:15.828Z,14.1
2022-08-17T03:33:15.106Z,14.1
2022-08-17T03:34:14.663Z,14.1
2022-08-17T03:35:22.918Z,14.1
2022-08-17T03:36:14.641Z,14
2022-08-17T03:37:13.762Z,14
2022-08-17T03:38:20.143Z,14
2022-08-17T03:39:16.870Z,14
2022-08-17T03:40:13.791Z,13.9
2022-08-17T03:41:19.931Z,13.8
2022-08-17T03:42:33.683Z,13.8
2022-08-17T03:43:19.803Z,13.7
2022-08-17T03:44:17.930Z,13.7
2022-08-17T03:45:19.715Z,13.7
2022-08-17T03:46:38.741Z,13.8
2022-08-17T03:47:07.104Z,13.8
2022-08-17T03:48:23.699Z,13.8
2022-08-17T03:49:15.360Z,13.8
2022-08-17T03:50:18.601Z,13.8
2022-08-17T03:51:18.925Z,13.8
2022-08-17T03:52:14.424Z,13.8
2022-08-17T03:53:15.162Z,13.9
2022-08-17T03:54:15.367Z,14
2022-08-17T03:55:21.214Z,13.9
2022-08-17T03:56:13.068Z,13.9
2022-08-17T03:57:13.351Z,13.9
2022-08-17T03:58:18.612Z,13.9
2022-08-17T03:59:27.995Z,13.8
2022-08-17T04:00:18.513Z,13.7
2022-08-17T04:01:18.020Z,13.7
2022-08-17T04:02:16.101Z,13.6
2022-08-17T04:03:13.729Z,13.6
2022-08-17T04:04:17.169Z,13.6
2022-08-17T04:05:15.829Z,13.5
2022-08-17T04:06:19.518Z,13.5
2022-08-17T04:07:14.685Z,13.5
2022-08-17T04:08:16.745Z,13.4
2022-08-17T04:09:21.336Z,13.4
2022-08-17T04:10:07.749Z,13.3
2022-08-17T04:11:19.956Z,13.3
2022-08-17T04:12:14.574Z,13.4
2022-08-17T04:13:13.479Z,13.6
2022-08-17T04:14:15.265Z,13.6
2022-08-17T04:15:15.807Z,13.6
2022-08-17T04:16:14.263Z,13.7
2022-08-17T04:17:18.581Z,13.6
2022-08-17T04:18:16.108Z,13.6
2022-08-17T04:19:18.278Z,13.6
2022-08-17T04:20:15.664Z,13.6
2022-08-17T04:21:18.577Z,13.7
2022-08-17T04:22:34.884Z,13.7
2022-08-17T04:23:14.645Z,13.9
2022-08-17T04:24:14.566Z,13.9
2022-08-17T04:25:20.295Z,13.8
2022-08-17T04:26:07.704Z,13.8
2022-08-17T04:27:14.988Z,13.9
2022-08-17T04:28:20.362Z,13.9
2022-08-17T04:29:18.135Z,13.9
2022-08-17T04:30:20.753Z,13.9
2022-08-17T04:31:17.623Z,14
2022-08-17T04:32:14.963Z,14.1
2022-08-17T04:33:14.551Z,14.2
2022-08-17T04:34:23.945Z,14.3
2022-08-17T04:35:13.670Z,14.2
2022-08-17T04:36:16.497Z,14.2
2022-08-17T04:37:14.486Z,14.2
2022-08-17T04:38:17.935Z,14.2
2022-08-17T04:39:18.930Z,14.2
2022-08-17T04:40:10.914Z,14.2
2022-08-17T04:41:18.386Z,14.2
2022-08-17T04:42:15.915Z,14.3
2022-08-17T04:43:16.186Z,14.3
2022-08-17T04:44:39.279Z,14.2
2022-08-17T04:45:16.496Z,14.3
2022-08-17T04:46:17.803Z,14.3
2022-08-17T04:47:17.445Z,14.3
2022-08-17T04:48:15.397Z,14.3
2022-08-17T04:49:17.985Z,14.3
2022-08-17T04:50:17.345Z,14.4
2022-08-17T04:51:17.899Z,14.4
2022-08-17T04:52:47.827Z,14.5
2022-08-17T04:53:13.205Z,14.6
2022-08-17T04:54:13.455Z,14.7
2022-08-17T04:55:16.851Z,14.7
2022-08-17T04:56:18.135Z,14.7
2022-08-17T04:57:14.137Z,14.9
2022-08-17T04:58:18.542Z,14.9
2022-08-17T04:59:17.709Z,15
2022-08-17T05:00:18.579Z,15
2022-08-17T05:01:08.553Z,15
2022-08-17T05:02:16.497Z,15.1
2022-08-17T05:03:16.058Z,15.1
2022-08-17T05:04:37.669Z,15.2
2022-08-17T05:05:14.993Z,15.2
2022-08-17T05:06:18.576Z,15.3
2022-08-17T05:07:13.159Z,15.3
2022-08-17T05:08:15.882Z,15.3
2022-08-17T05:09:17.577Z,15.4
2022-08-17T05:10:14.432Z,15.4
2022-08-17T05:11:16.726Z,15.6
2022-08-17T05:12:12.246Z,15.6
2022-08-17T05:13:16.231Z,15.6
2022-08-17T05:14:18.986Z,15.7
2022-08-17T05:15:17.283Z,15.7
2022-08-17T05:16:17.071Z,15.7
2022-08-17T05:17:17.119Z,15.8
2022-08-17T05:18:14.834Z,15.9
2022-08-17T05:19:15.310Z,15.9
2022-08-17T05:20:18.265Z,16.1
2022-08-17T05:21:16.365Z,16.1
2022-08-17T05:22:16.246Z,16.1
2022-08-17T05:23:16.732Z,16.2
2022-08-17T05:24:57.726Z,16.3
2022-08-17T05:25:15.747Z,16.3
2022-08-17T05:26:29.309Z,16.4
2022-08-17T05:27:25.587Z,16.4
2022-08-17T05:28:17.947Z,16.4
2022-08-17T05:29:14.105Z,16.4
2022-08-17T05:30:13.896Z,16.4
2022-08-17T05:31:12.234Z,16.6
2022-08-17T05:32:42.834Z,16.7
2022-08-17T05:33:12.604Z,16.7
2022-08-17T05:34:18.297Z,16.8
2022-08-17T05:35:13.139Z,16.8
2022-08-17T05:36:45.632Z,16.9
2022-08-17T05:37:13.499Z,16.9
2022-08-17T05:38:14.566Z,16.9
2022-08-17T05:39:21.177Z,17.1
2022-08-17T05:40:12.910Z,17.1
2022-08-17T05:41:21.720Z,17.1
2022-08-17T05:42:13.184Z,17.1
2022-08-17T05:43:07.657Z,17.1
2022-08-17T05:44:10.392Z,17
2022-08-17T05:45:17.043Z,17.1
2022-08-17T05:46:18.271Z,17.1
2022-08-17T05:47:16.256Z,17.3
2022-08-17T05:48:19.133Z,17.4
2022-08-17T05:49:14.046Z,17.4
2022-08-17T05:50:29.836Z,17.6
2022-08-17T05:51:07.644Z,17.8
2022-08-17T05:52:24.271Z,17.8
2022-08-17T05:53:16.749Z,17.8
2022-08-17T05:54:14.208Z,17.8
2022-08-17T05:55:16.368Z,18.3
2022-08-17T05:56:34.194Z,18.3
2022-08-17T05:57:16.332Z,18.2
2022-08-17T05:58:13.872Z,18.3
2022-08-17T05:59:07.089Z,18.3
2022-08-17T06:00:22.209Z,18.3
2022-08-17T06:01:17.666Z,18.3
2022-08-17T06:02:13.681Z,18.3
2022-08-17T06:03:16.571Z,18.3
2022-08-17T06:04:11.673Z,18.5
2022-08-17T06:05:19.475Z,18.6
2022-08-17T06:06:15.385Z,18.6
2022-08-17T06:07:17.463Z,18.6
2022-08-17T06:08:11.798Z,18.7
2022-08-17T06:09:21.263Z,18.8
2022-08-17T06:10:13.230Z,18.8
2022-08-17T06:11:19.799Z,18.8
2022-08-17T06:12:23.844Z,18.8
2022-08-17T06:13:16.078Z,19
2022-08-17T06:14:15.163Z,19.1
2022-08-17T06:15:16.540Z,19.2
2022-08-17T06:16:37.781Z,19.2
2022-08-17T06:17:06.713Z,19.4
2022-08-17T06:18:21.445Z,19.4
2022-08-17T06:19:14.510Z,19.7
2022-08-17T06:20:17.181Z,19.7
2022-08-17T06:21:24.465Z,19.9
2022-08-17T06:22:15.695Z,20.1
2022-08-17T06:23:14.964Z,20.4
2022-08-17T06:24:20.120Z,21
2022-08-17T06:25:18.326Z,21.2
2022-08-17T06:26:16.801Z,21.2
2022-08-17T06:27:15.306Z,21.1
2022-08-17T06:28:18.220Z,21.4
2022-08-17T06:29:22.928Z,21.4
2022-08-17T06:30:13.543Z,21.1
2022-08-17T06:31:18.132Z,21.2
2022-08-17T06:32:16.984Z,21.2
2022-08-17T06:33:07.263Z,21.4
2022-08-17T06:34:17.003Z,22.2
2022-08-17T06:35:15.458Z,21.5
2022-08-17T06:36:20.190Z,21.5
2022-08-17T06:37:24.156Z,21.3
2022-08-17T06:38:41.617Z,21.4
2022-08-17T06:39:07.446Z,21.4
2022-08-17T06:40:14.737Z,21.7
2022-08-17T06:41:16.664Z,21.7
2022-08-17T06:43:10.031Z,21.7
2022-08-17T06:44:53.291Z,23.1
2022-08-17T06:45:14.494Z,22.9
2022-08-17T06:46:11.299Z,22.9
2022-08-17T06:47:13.274Z,23
2022-08-17T06:48:17.065Z,22.3
2022-08-17T06:49:15.079Z,21.9
2022-08-17T06:50:23.122Z,21.9
2022-08-17T06:51:06.987Z,21.9
2022-08-17T06:52:50.543Z,21.9
2022-08-17T06:53:13.350Z,22.3
2022-08-17T06:54:13.921Z,23.3
2022-08-17T06:55:22.277Z,23.1
2022-08-17T06:56:15.109Z,23.1
2022-08-17T06:57:12.562Z,22.5
2022-08-17T06:58:20.812Z,22.5
2022-08-17T06:59:15.190Z,22.5
2022-08-17T07:00:13.733Z,23.2
2022-08-17T07:01:11.990Z,23.2
2022-08-17T07:02:19.037Z,23.2
2022-08-17T07:03:08.363Z,23.2
2022-08-17T07:04:19.320Z,23.3
2022-08-17T07:05:14.895Z,23.2
2022-08-17T07:06:19.463Z,23
2022-08-17T07:07:18.037Z,22.4
2022-08-17T07:08:14.381Z,22.4
2022-08-17T07:09:18.997Z,22.3
2022-08-17T07:10:14.442Z,22.5
2022-08-17T07:11:14.896Z,22.6
2022-08-17T07:12:14.308Z,22.6
2022-08-17T07:13:15.088Z,22.6
2022-08-17T07:14:21.302Z,22.6
2022-08-17T07:15:20.110Z,22.6
2022-08-17T07:16:16.319Z,22.7
2022-08-17T07:17:19.257Z,22.8
2022-08-17T07:18:12.611Z,22.8
2022-08-17T07:19:16.102Z,22.7
2022-08-17T07:20:16.687Z,22.7
2022-08-17T07:21:22.910Z,22.6
2022-08-17T07:22:13.814Z,22.6
2022-08-17T07:23:15.887Z,22.6
2022-08-17T07:24:33.372Z,22.6
2022-08-17T07:25:22.927Z,22.9
2022-08-17T07:26:17.079Z,22.9
2022-08-17T07:27:14.513Z,22.9
2022-08-17T07:28:17.111Z,22.9
2022-08-17T07:29:16.038Z,22.9
2022-08-17T07:30:17.184Z,23
2022-08-17T07:31:16.674Z,23
2022-08-17T07:32:11.260Z,23
2022-08-17T07:33:17.699Z,23.2
2022-08-17T07:34:13.009Z,23.2
2022-08-17T07:35:17.616Z,23.2
2022-08-17T07:36:13.941Z,23.2
2022-08-17T07:37:15.615Z,23.3
2022-08-17T07:38:30.550Z,23.3
2022-08-17T07:39:26.806Z,23.4
2022-08-17T07:40:20.296Z,23.4
2022-08-17T07:41:22.363Z,23.4
2022-08-17T07:42:14.494Z,23.4
2022-08-17T07:43:25.403Z,23.5
2022-08-17T07:44:14.892Z,23.5
2022-08-17T07:45:14.521Z,23.5
2022-08-17T07:46:15.149Z,23.7
2022-08-17T07:47:18.029Z,23.8
2022-08-17T07:48:20.174Z,23.8
2022-08-17T07:49:12.442Z,23.6
2022-08-17T07:50:16.083Z,23.6
2022-08-17T07:51:09.204Z,23.6
2022-08-17T07:52:54.755Z,24
2022-08-17T07:53:19.480Z,24
2022-08-17T07:54:18.994Z,24.3
2022-08-17T07:55:17.507Z,24.3
2022-08-17T07:56:13.179Z,24.3
2022-08-17T07:57:18.110Z,24.3
2022-08-17T07:58:12.797Z,24.3
2022-08-17T07:59:16.480Z,24.4
2022-08-17T08:00:22.278Z,24.4
2022-08-17T08:01:12.043Z,24.4
2022-08-17T08:02:17.038Z,24.4
2022-08-17T08:03:14.497Z,24.6
2022-08-17T08:04:37.534Z,24.6
2022-08-17T08:05:52.909Z,24.6
2022-08-17T08:06:12.811Z,24.7
2022-08-17T08:07:15.555Z,24.8
2022-08-17T08:08:19.169Z,24.8
2022-08-17T08:09:13.556Z,24.8
2022-08-17T08:10:14.036Z,24.6
2022-08-17T08:11:15.175Z,24.6
2022-08-17T08:12:20.094Z,24.6
2022-08-17T08:13:18.190Z,25.1
2022-08-17T08:14:21.052Z,25.2
2022-08-17T08:15:16.285Z,25.2
2022-08-17T08:16:12.020Z,25.2
2022-08-17T08:17:15.325Z,25.3
2022-08-17T08:18:55.223Z,25.3
2022-08-17T08:19:16.303Z,25.3
2022-08-17T08:20:56.188Z,25.6
2022-08-17T08:21:16.453Z,25.6
2022-08-17T08:22:14.739Z,25.6
2022-08-17T08:23:22.409Z,25.4
2022-08-17T08:24:18.020Z,25.4
2022-08-17T08:25:10.261Z,25.6
2022-08-17T08:26:22.908Z,25.7
2022-08-17T08:27:15.361Z,25.9
2022-08-17T08:28:15.480Z,25.9
2022-08-17T08:29:15.315Z,25.8
2022-08-17T08:30:13.880Z,25.8
2022-08-17T08:31:17.069Z,25.8
2022-08-17T08:32:13.453Z,25.9
2022-08-17T08:33:19.297Z,26.1
2022-08-17T08:35:04.817Z,25.9
2022-08-17T08:35:15.193Z,25.9
2022-08-17T08:37:33.854Z,26.2
2022-08-17T08:37:35.675Z,26.1
2022-08-17T08:38:14.595Z,26.1
2022-08-17T08:39:17.476Z,26.1
2022-08-17T08:40:08.244Z,26.3
2022-08-17T08:41:19.173Z,26.3
2022-08-17T08:42:16.224Z,26.5
2022-08-17T08:43:14.217Z,26.6
2022-08-17T08:44:14.320Z,26.4
2022-08-17T08:45:15.148Z,26.6
2022-08-17T08:46:21.725Z,26.7
2022-08-17T08:47:18.087Z,26.9
2022-08-17T08:49:00.197Z,26.9
2022-08-17T08:49:18.581Z,27.1
2022-08-17T08:50:42.178Z,27
2022-08-17T08:51:16.178Z,27.1
2022-08-17T08:52:14.831Z,27.1
2022-08-17T08:53:13.043Z,27.1
2022-08-17T08:54:13.558Z,27.1
2022-08-17T08:55:14.448Z,27
2022-08-17T08:56:14.298Z,27.1
2022-08-17T08:57:35.784Z,27.3
2022-08-17T08:58:44.285Z,27.2
2022-08-17T08:59:16.851Z,27.3
2022-08-17T09:00:13.501Z,27.4
2022-08-17T09:01:21.246Z,27.4
2022-08-17T09:02:14.666Z,27.4
2022-08-17T09:03:16.567Z,27.4
2022-08-17T09:04:28.717Z,27.6
2022-08-17T09:05:18.815Z,27.6
2022-08-17T09:06:42.152Z,27.6
2022-08-17T09:07:15.037Z,27.6
2022-08-17T09:08:17.000Z,27.8
2022-08-17T09:09:18.869Z,27.9
2022-08-17T09:10:08.543Z,27.9
2022-08-17T09:11:20.999Z,27.9
2022-08-17T09:12:14.038Z,27.7
2022-08-17T09:13:18.988Z,27.8
2022-08-17T09:14:30.802Z,27.8
2022-08-17T09:15:17.107Z,27.8
2022-08-17T09:16:12.203Z,28
2022-08-17T09:17:20.406Z,27.5
2022-08-17T09:19:08.007Z,27.5
2022-08-17T09:20:30.374Z,27.7
2022-08-17T09:21:20.138Z,28.2
2022-08-17T09:22:14.336Z,28.1
2022-08-17T09:23:13.873Z,28
2022-08-17T09:24:22.827Z,28
2022-08-17T09:25:15.892Z,28.4
2022-08-17T09:26:13.748Z,28.6
2022-08-17T09:27:18.662Z,28.6
2022-08-17T09:28:16.745Z,28.2
2022-08-17T09:29:14.709Z,28.5
2022-08-17T09:30:14.883Z,28.5
2022-08-17T09:31:15.141Z,28.6
2022-08-17T09:32:29.752Z,28.6
2022-08-17T09:33:06.909Z,28.6
2022-08-17T09:34:19.556Z,28.4
2022-08-17T09:35:17.648Z,28.4
2022-08-17T09:36:14.985Z,28.4
2022-08-17T09:37:15.406Z,28.4
2022-08-17T09:38:16.602Z,28.3
2022-08-17T09:39:17.306Z,28.4
2022-08-17T09:40:18.028Z,28.8
2022-08-17T09:41:13.841Z,28.8
2022-08-17T09:42:19.300Z,29.2
2022-08-17T09:43:15.724Z,28.6
2022-08-17T09:44:27.785Z,28.6
2022-08-17T09:45:13.039Z,28.8
2022-08-17T09:46:13.781Z,28.8
2022-08-17T09:47:15.542Z,28.8
2022-08-17T09:48:11.858Z,29.4
2022-08-17T09:49:13.038Z,29.4
2022-08-17T09:50:15.085Z,29.6
2022-08-17T09:51:14.209Z,29.3
2022-08-17T09:52:14.572Z,29.3
2022-08-17T09:53:14.911Z,29.6
2022-08-17T09:54:44.456Z,29.4
2022-08-17T09:55:13.992Z,29.5
2022-08-17T09:56:12.331Z,29.5
2022-08-17T09:57:34.833Z,29.5
2022-08-17T09:58:14.005Z,29.8
2022-08-17T09:59:13.616Z,29.8
2022-08-17T10:00:15.621Z,29.4
2022-08-17T10:01:18.897Z,29.1
2022-08-17T10:02:17.827Z,29.1
2022-08-17T10:03:15.987Z,29.1
2022-08-17T10:04:20.190Z,28.9
2022-08-17T10:05:14.447Z,28.9
2022-08-17T10:06:13.391Z,29.6
2022-08-17T10:07:14.363Z,29.6
2022-08-17T10:08:15.962Z,29.5
2022-08-17T10:09:16.872Z,29.5
2022-08-17T10:10:18.379Z,29.5
2022-08-17T10:11:16.977Z,29.4
2022-08-17T10:12:21.275Z,29.4
2022-08-17T10:13:13.839Z,29.8
2022-08-17T10:14:55.677Z,29.9
2022-08-17T10:15:13.987Z,29.9
2022-08-17T10:16:18.158Z,29.9
2022-08-17T10:17:14.786Z,30
2022-08-17T10:18:16.154Z,30
2022-08-17T10:19:16.474Z,29.9
2022-08-17T10:20:14.906Z,29.9
2022-08-17T10:21:14.113Z,29.8
2022-08-17T10:22:40.253Z,29.9
2022-08-17T10:23:15.123Z,30
2022-08-17T10:24:15.499Z,29.9
2022-08-17T10:26:00.030Z,29.5
2022-08-17T10:26:15.573Z,29.4
2022-08-17T10:27:12.889Z,29.8
2022-08-17T10:28:30.173Z,29.8
2022-08-17T10:29:16.538Z,29.9
2022-08-17T10:30:16.561Z,29.9
2022-08-17T10:31:38.654Z,30
2022-08-17T10:32:17.368Z,30
2022-08-17T10:33:14.285Z,30
2022-08-17T10:34:23.548Z,30
2022-08-17T10:35:07.360Z,30
2022-08-17T10:36:17.791Z,30.1
2022-08-17T10:37:15.149Z,30.1
2022-08-17T10:38:17.548Z,30.5
2022-08-17T10:39:18.774Z,30.6
2022-08-17T10:40:17.457Z,30.6
2022-08-17T10:41:16.445Z,30.6
2022-08-17T10:42:11.440Z,30.8
2022-08-17T10:43:15.969Z,30.3
2022-08-17T10:44:43.972Z,30.3
2022-08-17T10:45:14.525Z,30.3
2022-08-17T10:46:35.501Z,30.3
2022-08-17T10:47:13.568Z,29.9
2022-08-17T10:48:14.400Z,30.4
2022-08-17T10:49:12.736Z,30.3
2022-08-17T10:50:15.904Z,30.1
2022-08-17T10:51:16.549Z,30.1
2022-08-17T10:52:15.412Z,30.1
2022-08-17T10:53:09.362Z,30.3
2022-08-17T10:54:20.366Z,30.4
2022-08-17T10:55:14.174Z,30.4
2022-08-17T10:56:22.563Z,30.7
2022-08-17T10:57:09.103Z,30.8
2022-08-17T10:58:07.716Z,31.1
2022-08-17T10:59:14.241Z,30.8
2022-08-17T11:00:14.797Z,30.8
2022-08-17T11:01:16.231Z,30.6
2022-08-17T11:02:16.401Z,30.6
2022-08-17T11:03:16.063Z,30.7
2022-08-17T11:04:14.053Z,30.7
2022-08-17T11:05:16.131Z,30.9
2022-08-17T11:06:17.031Z,30.9
2022-08-17T11:07:14.259Z,31
2022-08-17T11:08:21.785Z,31.1
2022-08-17T11:09:17.795Z,31.1
2022-08-17T11:10:17.562Z,31.4
2022-08-17T11:11:13.590Z,31.7
2022-08-17T11:12:13.930Z,31.3
2022-08-17T11:13:17.571Z,31.3
2022-08-17T11:14:15.410Z,30.8
2022-08-17T11:15:15.932Z,31
2022-08-17T11:16:20.625Z,31.4
2022-08-17T11:17:13.861Z,31.4
2022-08-17T11:18:23.392Z,31.1
2022-08-17T11:19:15.849Z,31.2
2022-08-17T11:20:10.018Z,31.2
2022-08-17T11:21:18.717Z,31.1
2022-08-17T11:22:07.782Z,31.1
2022-08-17T11:23:20.087Z,31.1
2022-08-17T11:24:11.171Z,31.2
2022-08-17T11:25:14.625Z,31.2
2022-08-17T11:26:15.362Z,31.3
2022-08-17T11:27:16.831Z,31.3
2022-08-17T11:28:18.081Z,30.7
2022-08-17T11:29:18.497Z,30.6
2022-08-17T11:30:14.812Z,30.7
2022-08-17T11:31:17.316Z,30.7
2022-08-17T11:32:18.679Z,31.2
2022-08-17T11:33:26.093Z,31.2
2022-08-17T11:34:16.024Z,31.1
2022-08-17T11:35:17.020Z,31.1
2022-08-17T11:36:15.496Z,31.2
2022-08-17T11:37:08.793Z,31.1
2022-08-17T11:38:20.511Z,30.3
2022-08-17T11:39:18.652Z,30
2022-08-17T11:40:16.802Z,29.8
2022-08-17T11:41:16.035Z,29.8
2022-08-17T11:42:13.709Z,29.9
2022-08-17T11:43:20.687Z,29.9
2022-08-17T11:44:19.651Z,29.9
2022-08-17T11:45:36.443Z,30.6
2022-08-17T11:46:07.726Z,30.8
2022-08-17T11:47:16.763Z,30.8
2022-08-17T11:48:32.677Z,30.8
2022-08-17T11:49:14.527Z,31
2022-08-17T11:50:22.483Z,30.9
2022-08-17T11:51:10.852Z,30.9
2022-08-17T11:52:21.411Z,30.9
2022-08-17T11:53:15.409Z,30.9
2022-08-17T11:54:36.970Z,31.1
2022-08-17T11:55:44.902Z,31.3
2022-08-17T11:56:13.670Z,31.3
2022-08-17T11:57:11.879Z,31.3
2022-08-17T11:58:18.258Z,31.3
2022-08-17T11:59:15.214Z,31.2
2022-08-17T12:00:17.916Z,31.2
2022-08-17T12:01:17.239Z,31.2
2022-08-17T12:02:16.387Z,31.2
2022-08-17T12:03:17.842Z,31.2
2022-08-17T12:04:15.197Z,31.3
2022-08-17T12:05:18.306Z,31.4
2022-08-17T12:06:21.094Z,31.6
2022-08-17T12:07:07.731Z,31.4
2022-08-17T12:08:16.071Z,31.4
2022-08-17T12:09:16.058Z,31.4
2022-08-17T12:10:14.849Z,31.4
2022-08-17T12:11:14.290Z,31.9
2022-08-17T12:12:18.973Z,32.1
2022-08-17T12:13:15.757Z,32.1
2022-08-17T12:14:40.043Z,31.9
2022-08-17T12:15:17.795Z,31.9
2022-08-17T12:16:17.897Z,31.8
2022-08-17T12:17:39.828Z,31.8
2022-08-17T12:18:14.146Z,31.4
2022-08-17T12:19:14.575Z,31.4
2022-08-17T12:20:14.818Z,31.4
2022-08-17T12:21:15.901Z,31.4
2022-08-17T12:22:13.377Z,31.7
2022-08-17T12:23:16.946Z,31.7
2022-08-17T12:24:19.831Z,31.9
2022-08-17T12:25:07.106Z,31.9
2022-08-17T12:26:12.576Z,31.9
2022-08-17T12:27:15.195Z,31.8
2022-08-17T12:28:19.816Z,31.8
2022-08-17T12:29:40.396Z,31.8
2022-08-17T12:30:13.125Z,31.8
2022-08-17T12:31:21.157Z,31.7
2022-08-17T12:32:13.667Z,31.5
2022-08-17T12:33:30.128Z,31.5
2022-08-17T12:34:15.519Z,31.4
2022-08-17T12:35:17.310Z,31.5
2022-08-17T12:36:14.126Z,31.8
2022-08-17T12:37:17.207Z,31.8
2022-08-17T12:38:37.168Z,31.8
2022-08-17T12:39:24.909Z,31.5
2022-08-17T12:40:11.673Z,31.5
2022-08-17T12:41:18.329Z,31.5
2022-08-17T12:42:18.997Z,31.5
2022-08-17T12:43:15.447Z,31.5
2022-08-17T12:44:14.897Z,31.6
2022-08-17T12:45:13.667Z,31.5
2022-08-17T12:46:20.870Z,31.6
2022-08-17T12:47:12.663Z,31.6
2022-08-17T12:48:16.341Z,31.7
2022-08-17T12:49:16.315Z,31.7
2022-08-17T12:50:33.693Z,31.8
2022-08-17T12:51:13.588Z,31.8
2022-08-17T12:52:16.032Z,31.6
2022-08-17T12:53:13.669Z,31.7
2022-08-17T12:54:16.794Z,31.7
2022-08-17T12:55:17.726Z,31.9
2022-08-17T12:56:17.235Z,31.9
2022-08-17T12:57:16.880Z,31.9
2022-08-17T12:58:18.391Z,31.8
2022-08-17T12:59:31.665Z,31.8
2022-08-17T13:00:12.469Z,31.8
2022-08-17T13:01:17.539Z,31.9
2022-08-17T13:02:16.775Z,31.9
2022-08-17T13:03:17.063Z,31.9
2022-08-17T13:04:16.002Z,31.8
2022-08-17T13:05:13.777Z,31.9
2022-08-17T13:06:19.294Z,31.9
2022-08-17T13:07:17.325Z,31.9
2022-08-17T13:08:16.079Z,31.9
2022-08-17T13:09:21.367Z,31.9
2022-08-17T13:10:07.545Z,32.1
2022-08-17T13:11:19.149Z,31.9
2022-08-17T13:12:12.197Z,31.9
2022-08-17T13:13:15.872Z,31.9
2022-08-17T13:14:15.854Z,31.8
2022-08-17T13:15:16.191Z,31.7
2022-08-17T13:16:14.295Z,31.7
2022-08-17T13:17:21.834Z,31.6
2022-08-17T13:18:16.691Z,31.6
2022-08-17T13:19:14.486Z,31.9
2022-08-17T13:20:12.799Z,31.9
2022-08-17T13:21:16.699Z,31.9
2022-08-17T13:22:13.271Z,31.8
2022-08-17T13:23:16.788Z,31.8